Arlington, Massachusetts
Current Conditions -  °F | °C
As of 5:56 PM on Wednesday 22 Oct 2014 (Local Time) from KBED Reporting Station
Light Rain Light Rain  
Wind Chill: 41°   Ceiling: 700
Heat Index: 48°   Visibility: 2mi
Dew Point: 47°   Wind: 21mph
Humidity: 96%   Direction: 30°NNE
Pressure: 29.9"   Gusts: 31mph
Location:  42.42°N, 71.16°W
Report Text: KBED 222156Z 03018G27KT 2SM -RA BR OVC007 09/08 A2990 RMK AO2 PK WND 04030/2106 SLP138 P0001 T00890083
Loading
Personal Weather Stations






























Interactive Weather Map New forecast layout! Learn more

10-Day Weather Forecast

Advertisements
Track Severe Weather on mobile